sensor_id;sensor_type;location;lat;lon;timestamp;temperature;humidity
45619;DHT22;31343;47.520;19.144;2023-12-07T00:00:59;1.40;99.90
45619;DHT22;31343;47.520;19.144;2023-12-07T00:03:25;1.30;99.90
45619;DHT22;31343;47.520;19.144;2023-12-07T00:05:51;1.40;99.90
45619;DHT22;31343;47.520;19.144;2023-12-07T00:08:16;1.30;99.90
45619;DHT22;31343;47.520;19.144;2023-12-07T00:10:42;1.30;99.90
45619;DHT22;31343;47.520;19.144;2023-12-07T00:13:08;1.40;99.90
45619;DHT22;31343;47.520;19.144;2023-12-07T00:15:34;1.40;99.90
45619;DHT22;31343;47.520;19.144;2023-12-07T00:17:59;1.50;99.90
45619;DHT22;31343;47.520;19.144;2023-12-07T00:20:26;1.50;99.90
45619;DHT22;31343;47.520;19.144;2023-12-07T00:22:51;1.50;99.90
45619;DHT22;31343;47.520;19.144;2023-12-07T00:25:17;1.40;99.90
45619;DHT22;31343;47.520;19.144;2023-12-07T00:27:43;1.40;99.90
45619;DHT22;31343;47.520;19.144;2023-12-07T00:30:09;1.30;99.90
45619;DHT22;31343;47.520;19.144;2023-12-07T00:32:35;1.30;99.90
45619;DHT22;31343;47.520;19.144;2023-12-07T00:35:00;1.30;99.90
45619;DHT22;31343;47.520;19.144;2023-12-07T00:37:26;1.40;99.90
45619;DHT22;31343;47.520;19.144;2023-12-07T00:39:52;1.30;99.90
45619;DHT22;31343;47.520;19.144;2023-12-07T00:42:18;1.40;99.90
45619;DHT22;31343;47.520;19.144;2023-12-07T00:44:44;1.30;99.90
45619;DHT22;31343;47.520;19.144;2023-12-07T00:47:10;1.20;99.90
45619;DHT22;31343;47.520;19.144;2023-12-07T00:49:39;1.20;99.90
45619;DHT22;31343;47.520;19.144;2023-12-07T00:52:08;1.30;99.90
45619;DHT22;31343;47.520;19.144;2023-12-07T00:54:34;1.30;99.90
45619;DHT22;31343;47.520;19.144;2023-12-07T00:57:00;1.30;99.90
45619;DHT22;31343;47.520;19.144;2023-12-07T00:59:25;1.20;99.90
45619;DHT22;31343;47.520;19.144;2023-12-07T01:01:51;1.30;99.90
45619;DHT22;31343;47.520;19.144;2023-12-07T01:04:17;1.30;99.90
45619;DHT22;31343;47.520;19.144;2023-12-07T01:06:43;1.20;99.90
45619;DHT22;31343;47.520;19.144;2023-12-07T01:09:09;1.20;99.90
45619;DHT22;31343;47.520;19.144;2023-12-07T01:11:39;1.30;99.90
45619;DHT22;31343;47.520;19.144;2023-12-07T01:14:07;1.30;99.90
45619;DHT22;31343;47.520;19.144;2023-12-07T01:16:33;1.20;99.90
45619;DHT22;31343;47.520;19.144;2023-12-07T01:18:59;1.30;99.90
45619;DHT22;31343;47.520;19.144;2023-12-07T01:21:24;1.30;99.90
45619;DHT22;31343;47.520;19.144;2023-12-07T01:23:50;1.30;99.90
45619;DHT22;31343;47.520;19.144;2023-12-07T01:26:16;1.20;99.90
45619;DHT22;31343;47.520;19.144;2023-12-07T01:28:42;1.20;99.90
45619;DHT22;31343;47.520;19.144;2023-12-07T01:31:07;1.20;99.90
45619;DHT22;31343;47.520;19.144;2023-12-07T01:33:33;1.50;99.90
45619;DHT22;31343;47.520;19.144;2023-12-07T01:35:59;1.30;99.90
45619;DHT22;31343;47.520;19.144;2023-12-07T01:38:25;1.30;99.90
45619;DHT22;31343;47.520;19.144;2023-12-07T01:40:51;1.40;99.90
45619;DHT22;31343;47.520;19.144;2023-12-07T01:43:17;1.30;99.90
45619;DHT22;31343;47.520;19.144;2023-12-07T01:45:43;1.30;99.90
45619;DHT22;31343;47.520;19.144;2023-12-07T01:48:09;1.40;99.90
45619;DHT22;31343;47.520;19.144;2023-12-07T01:50:34;1.40;99.90
45619;DHT22;31343;47.520;19.144;2023-12-07T01:53:02;1.40;99.90
45619;DHT22;31343;47.520;19.144;2023-12-07T01:55:29;1.30;99.90
45619;DHT22;31343;47.520;19.144;2023-12-07T01:57:57;1.40;99.90
45619;DHT22;31343;47.520;19.144;2023-12-07T02:00:23;1.40;99.90
45619;DHT22;31343;47.520;19.144;2023-12-07T02:02:50;1.30;99.90
45619;DHT22;31343;47.520;19.144;2023-12-07T02:05:17;1.30;99.90
45619;DHT22;31343;47.520;19.144;2023-12-07T02:07:42;1.30;99.90
45619;DHT22;31343;47.520;19.144;2023-12-07T02:10:10;1.40;99.90
45619;DHT22;31343;47.520;19.144;2023-12-07T02:12:35;1.40;99.90
45619;DHT22;31343;47.520;19.144;2023-12-07T02:15:02;1.50;99.90
45619;DHT22;31343;47.520;19.144;2023-12-07T02:17:35;1.40;99.90
45619;DHT22;31343;47.520;19.144;2023-12-07T02:20:18;1.30;99.90
45619;DHT22;31343;47.520;19.144;2023-12-07T02:22:59;1.30;99.90
45619;DHT22;31343;47.520;19.144;2023-12-07T02:25:36;1.30;99.90
45619;DHT22;31343;47.520;19.144;2023-12-07T02:28:05;1.30;99.90
45619;DHT22;31343;47.520;19.144;2023-12-07T02:30:31;1.40;99.90
45619;DHT22;31343;47.520;19.144;2023-12-07T02:32:56;1.30;99.90
45619;DHT22;31343;47.520;19.144;2023-12-07T02:35:23;1.30;99.90
45619;DHT22;31343;47.520;19.144;2023-12-07T02:37:49;1.40;99.90
45619;DHT22;31343;47.520;19.144;2023-12-07T02:40:22;1.30;99.90
45619;DHT22;31343;47.520;19.144;2023-12-07T02:42:49;1.30;99.90
45619;DHT22;31343;47.520;19.144;2023-12-07T02:45:15;1.40;99.90
45619;DHT22;31343;47.520;19.144;2023-12-07T02:47:41;1.50;99.90
45619;DHT22;31343;47.520;19.144;2023-12-07T02:50:09;1.40;99.90
45619;DHT22;31343;47.520;19.144;2023-12-07T02:52:35;1.40;99.90
45619;DHT22;31343;47.520;19.144;2023-12-07T02:55:01;1.30;99.90
45619;DHT22;31343;47.520;19.144;2023-12-07T02:57:28;1.40;99.90
45619;DHT22;31343;47.520;19.144;2023-12-07T02:59:55;1.30;99.90
45619;DHT22;31343;47.520;19.144;2023-12-07T03:02:20;1.30;99.90
45619;DHT22;31343;47.520;19.144;2023-12-07T03:04:46;1.30;99.90
45619;DHT22;31343;47.520;19.144;2023-12-07T03:07:12;1.30;99.90
45619;DHT22;31343;47.520;19.144;2023-12-07T03:09:38;1.30;99.90
45619;DHT22;31343;47.520;19.144;2023-12-07T03:12:04;1.30;99.90
45619;DHT22;31343;47.520;19.144;2023-12-07T03:14:30;1.30;99.90
45619;DHT22;31343;47.520;19.144;2023-12-07T03:16:56;1.30;99.90
45619;DHT22;31343;47.520;19.144;2023-12-07T03:19:22;1.30;99.90
45619;DHT22;31343;47.520;19.144;2023-12-07T03:21:47;1.30;99.90
45619;DHT22;31343;47.520;19.144;2023-12-07T03:24:13;1.30;99.90
45619;DHT22;31343;47.520;19.144;2023-12-07T03:26:39;1.30;99.90
45619;DHT22;31343;47.520;19.144;2023-12-07T03:29:04;1.30;99.90
45619;DHT22;31343;47.520;19.144;2023-12-07T03:31:30;1.30;99.90
45619;DHT22;31343;47.520;19.144;2023-12-07T03:33:56;1.30;99.90
45619;DHT22;31343;47.520;19.144;2023-12-07T03:36:22;1.30;99.90
45619;DHT22;31343;47.520;19.144;2023-12-07T03:38:49;1.30;99.90
45619;DHT22;31343;47.520;19.144;2023-12-07T03:41:15;1.30;99.90
45619;DHT22;31343;47.520;19.144;2023-12-07T03:43:41;1.30;99.90
45619;DHT22;31343;47.520;19.144;2023-12-07T03:46:07;1.30;99.90
45619;DHT22;31343;47.520;19.144;2023-12-07T03:48:34;1.30;99.90
45619;DHT22;31343;47.520;19.144;2023-12-07T03:51:00;1.30;99.90
45619;DHT22;31343;47.520;19.144;2023-12-07T03:53:27;1.30;99.90
45619;DHT22;31343;47.520;19.144;2023-12-07T03:55:53;1.30;99.90
45619;DHT22;31343;47.520;19.144;2023-12-07T03:58:18;1.30;99.90
45619;DHT22;31343;47.520;19.144;2023-12-07T04:00:45;1.30;99.90
45619;DHT22;31343;47.520;19.144;2023-12-07T04:03:11;1.30;99.90
45619;DHT22;31343;47.520;19.144;2023-12-07T04:05:38;1.30;99.90
45619;DHT22;31343;47.520;19.144;2023-12-07T04:08:04;1.30;99.90
45619;DHT22;31343;47.520;19.144;2023-12-07T04:10:32;1.30;99.90
45619;DHT22;31343;47.520;19.144;2023-12-07T04:12:58;1.30;99.90
45619;DHT22;31343;47.520;19.144;2023-12-07T04:15:24;1.30;99.90
45619;DHT22;31343;47.520;19.144;2023-12-07T04:17:51;1.30;99.90
45619;DHT22;31343;47.520;19.144;2023-12-07T04:20:18;1.30;99.90
45619;DHT22;31343;47.520;19.144;2023-12-07T04:22:44;1.30;99.90
45619;DHT22;31343;47.520;19.144;2023-12-07T04:25:10;1.30;99.90
45619;DHT22;31343;47.520;19.144;2023-12-07T04:27:36;1.30;99.90
45619;DHT22;31343;47.520;19.144;2023-12-07T04:30:02;1.30;99.90
45619;DHT22;31343;47.520;19.144;2023-12-07T04:32:29;1.30;99.90
45619;DHT22;31343;47.520;19.144;2023-12-07T04:34:55;1.30;99.90
45619;DHT22;31343;47.520;19.144;2023-12-07T04:37:21;1.30;99.90
45619;DHT22;31343;47.520;19.144;2023-12-07T04:39:46;1.30;99.90
45619;DHT22;31343;47.520;19.144;2023-12-07T04:42:12;1.30;99.90
45619;DHT22;31343;47.520;19.144;2023-12-07T04:44:38;1.30;99.90
45619;DHT22;31343;47.520;19.144;2023-12-07T04:47:04;1.30;99.90
45619;DHT22;31343;47.520;19.144;2023-12-07T04:49:30;1.20;99.90
45619;DHT22;31343;47.520;19.144;2023-12-07T04:51:55;1.30;99.90
45619;DHT22;31343;47.520;19.144;2023-12-07T04:54:21;1.30;99.90
45619;DHT22;31343;47.520;19.144;2023-12-07T04:56:47;1.30;99.90
45619;DHT22;31343;47.520;19.144;2023-12-07T04:59:13;1.20;99.90
45619;DHT22;31343;47.520;19.144;2023-12-07T05:01:39;1.30;99.90
45619;DHT22;31343;47.520;19.144;2023-12-07T05:04:05;1.30;99.90
45619;DHT22;31343;47.520;19.144;2023-12-07T05:06:31;1.20;99.90
45619;DHT22;31343;47.520;19.144;2023-12-07T05:08:57;1.30;99.90
45619;DHT22;31343;47.520;19.144;2023-12-07T05:11:23;1.20;99.90
45619;DHT22;31343;47.520;19.144;2023-12-07T05:13:49;1.20;99.90
45619;DHT22;31343;47.520;19.144;2023-12-07T05:16:14;1.20;99.90
45619;DHT22;31343;47.520;19.144;2023-12-07T05:18:40;1.20;99.90
45619;DHT22;31343;47.520;19.144;2023-12-07T05:21:07;1.20;99.90
45619;DHT22;31343;47.520;19.144;2023-12-07T05:23:33;1.20;99.90
45619;DHT22;31343;47.520;19.144;2023-12-07T05:26:00;1.30;99.90
45619;DHT22;31343;47.520;19.144;2023-12-07T05:28:26;1.30;99.90
45619;DHT22;31343;47.520;19.144;2023-12-07T05:30:52;1.40;99.90
45619;DHT22;31343;47.520;19.144;2023-12-07T05:33:18;1.30;99.90
45619;DHT22;31343;47.520;19.144;2023-12-07T05:35:47;1.30;99.90
45619;DHT22;31343;47.520;19.144;2023-12-07T05:38:13;1.30;99.90
45619;DHT22;31343;47.520;19.144;2023-12-07T05:40:39;1.30;99.90
45619;DHT22;31343;47.520;19.144;2023-12-07T05:43:05;1.30;99.90
45619;DHT22;31343;47.520;19.144;2023-12-07T05:45:30;1.30;99.90
45619;DHT22;31343;47.520;19.144;2023-12-07T05:47:56;1.20;99.90
45619;DHT22;31343;47.520;19.144;2023-12-07T05:50:22;1.20;99.90
45619;DHT22;31343;47.520;19.144;2023-12-07T05:52:48;1.30;99.90
45619;DHT22;31343;47.520;19.144;2023-12-07T05:55:14;1.30;99.90
45619;DHT22;31343;47.520;19.144;2023-12-07T05:57:40;1.30;99.90
45619;DHT22;31343;47.520;19.144;2023-12-07T06:00:06;1.30;99.90
45619;DHT22;31343;47.520;19.144;2023-12-07T06:02:36;1.30;99.90
45619;DHT22;31343;47.520;19.144;2023-12-07T06:05:02;1.30;99.90
45619;DHT22;31343;47.520;19.144;2023-12-07T06:07:31;1.30;99.90
45619;DHT22;31343;47.520;19.144;2023-12-07T06:09:57;1.30;99.90
45619;DHT22;31343;47.520;19.144;2023-12-07T06:12:22;1.40;99.90
45619;DHT22;31343;47.520;19.144;2023-12-07T06:14:49;1.30;99.90
45619;DHT22;31343;47.520;19.144;2023-12-07T06:17:14;1.40;99.90
45619;DHT22;31343;47.520;19.144;2023-12-07T06:19:40;1.30;99.90
45619;DHT22;31343;47.520;19.144;2023-12-07T06:22:08;1.40;99.90
45619;DHT22;31343;47.520;19.144;2023-12-07T06:24:33;1.40;99.90
45619;DHT22;31343;47.520;19.144;2023-12-07T06:26:59;1.40;99.90
45619;DHT22;31343;47.520;19.144;2023-12-07T06:29:27;1.30;99.90
45619;DHT22;31343;47.520;19.144;2023-12-07T06:31:53;1.40;99.90
45619;DHT22;31343;47.520;19.144;2023-12-07T06:34:18;1.40;99.90
45619;DHT22;31343;47.520;19.144;2023-12-07T06:36:45;1.40;99.90
45619;DHT22;31343;47.520;19.144;2023-12-07T06:39:11;1.30;99.90
45619;DHT22;31343;47.520;19.144;2023-12-07T06:41:36;1.30;99.90
45619;DHT22;31343;47.520;19.144;2023-12-07T06:44:02;1.40;99.90
45619;DHT22;31343;47.520;19.144;2023-12-07T06:46:28;1.50;99.90
45619;DHT22;31343;47.520;19.144;2023-12-07T06:48:54;1.50;99.90
45619;DHT22;31343;47.520;19.144;2023-12-07T06:51:19;1.40;99.90
45619;DHT22;31343;47.520;19.144;2023-12-07T06:53:45;1.40;99.90
45619;DHT22;31343;47.520;19.144;2023-12-07T06:56:11;1.40;99.90
45619;DHT22;31343;47.520;19.144;2023-12-07T06:58:36;1.40;99.90
45619;DHT22;31343;47.520;19.144;2023-12-07T07:01:02;1.40;99.90
45619;DHT22;31343;47.520;19.144;2023-12-07T07:03:28;1.40;99.90
45619;DHT22;31343;47.520;19.144;2023-12-07T07:05:57;1.40;99.90
45619;DHT22;31343;47.520;19.144;2023-12-07T07:08:24;1.40;99.90
45619;DHT22;31343;47.520;19.144;2023-12-07T07:10:50;1.30;99.90
45619;DHT22;31343;47.520;19.144;2023-12-07T07:13:16;1.30;99.90
45619;DHT22;31343;47.520;19.144;2023-12-07T07:15:43;1.30;99.90
45619;DHT22;31343;47.520;19.144;2023-12-07T07:18:09;1.30;99.90
45619;DHT22;31343;47.520;19.144;2023-12-07T07:20:35;1.30;99.90
45619;DHT22;31343;47.520;19.144;2023-12-07T07:23:01;1.30;99.90
45619;DHT22;31343;47.520;19.144;2023-12-07T07:25:26;1.40;99.90
45619;DHT22;31343;47.520;19.144;2023-12-07T07:27:52;1.30;99.90
45619;DHT22;31343;47.520;19.144;2023-12-07T07:30:20;1.30;99.90
45619;DHT22;31343;47.520;19.144;2023-12-07T07:32:46;1.40;99.90
45619;DHT22;31343;47.520;19.144;2023-12-07T07:35:12;1.40;99.90
45619;DHT22;31343;47.520;19.144;2023-12-07T07:37:39;1.40;99.90
45619;DHT22;31343;47.520;19.144;2023-12-07T07:40:05;1.40;99.90
45619;DHT22;31343;47.520;19.144;2023-12-07T07:42:33;1.40;99.90
45619;DHT22;31343;47.520;19.144;2023-12-07T07:44:59;1.50;99.90
45619;DHT22;31343;47.520;19.144;2023-12-07T07:47:24;1.60;99.90
45619;DHT22;31343;47.520;19.144;2023-12-07T07:49:50;1.60;99.90
45619;DHT22;31343;47.520;19.144;2023-12-07T07:52:16;1.60;99.90
45619;DHT22;31343;47.520;19.144;2023-12-07T07:54:42;1.70;99.90
45619;DHT22;31343;47.520;19.144;2023-12-07T07:57:08;1.60;99.90
45619;DHT22;31343;47.520;19.144;2023-12-07T07:59:34;1.70;99.90
45619;DHT22;31343;47.520;19.144;2023-12-07T08:02:00;1.70;99.90
45619;DHT22;31343;47.520;19.144;2023-12-07T08:04:25;1.60;99.90
45619;DHT22;31343;47.520;19.144;2023-12-07T08:06:51;1.60;99.90
45619;DHT22;31343;47.520;19.144;2023-12-07T08:09:17;1.60;99.90
45619;DHT22;31343;47.520;19.144;2023-12-07T08:11:42;1.60;99.90
45619;DHT22;31343;47.520;19.144;2023-12-07T08:14:08;1.60;99.90
45619;DHT22;31343;47.520;19.144;2023-12-07T08:16:34;1.70;99.90
45619;DHT22;31343;47.520;19.144;2023-12-07T08:19:00;1.70;99.90
45619;DHT22;31343;47.520;19.144;2023-12-07T08:21:25;1.70;99.90
45619;DHT22;31343;47.520;19.144;2023-12-07T08:23:51;1.60;99.90
45619;DHT22;31343;47.520;19.144;2023-12-07T08:26:17;1.60;99.90
45619;DHT22;31343;47.520;19.144;2023-12-07T08:28:43;1.60;99.90
45619;DHT22;31343;47.520;19.144;2023-12-07T08:31:10;1.50;99.90
45619;DHT22;31343;47.520;19.144;2023-12-07T08:33:36;1.50;99.90
45619;DHT22;31343;47.520;19.144;2023-12-07T08:36:05;1.50;99.90
45619;DHT22;31343;47.520;19.144;2023-12-07T08:38:32;1.60;99.90
45619;DHT22;31343;47.520;19.144;2023-12-07T08:40:58;1.70;99.90
45619;DHT22;31343;47.520;19.144;2023-12-07T08:43:24;1.80;99.90
45619;DHT22;31343;47.520;19.144;2023-12-07T08:45:53;1.80;99.90
45619;DHT22;31343;47.520;19.144;2023-12-07T08:48:20;1.70;99.90
45619;DHT22;31343;47.520;19.144;2023-12-07T08:50:46;1.90;99.90
45619;DHT22;31343;47.520;19.144;2023-12-07T08:53:12;1.90;99.90
45619;DHT22;31343;47.520;19.144;2023-12-07T08:55:37;1.80;99.90
45619;DHT22;31343;47.520;19.144;2023-12-07T08:58:03;1.90;99.90
45619;DHT22;31343;47.520;19.144;2023-12-07T09:00:34;2.00;99.90
45619;DHT22;31343;47.520;19.144;2023-12-07T09:03:00;2.10;99.90
45619;DHT22;31343;47.520;19.144;2023-12-07T09:05:27;2.10;99.90
45619;DHT22;31343;47.520;19.144;2023-12-07T09:07:53;2.10;99.90
45619;DHT22;31343;47.520;19.144;2023-12-07T09:10:19;2.10;99.90
45619;DHT22;31343;47.520;19.144;2023-12-07T09:12:45;2.10;99.90
45619;DHT22;31343;47.520;19.144;2023-12-07T09:15:11;2.20;99.90
45619;DHT22;31343;47.520;19.144;2023-12-07T09:17:40;2.00;99.90
45619;DHT22;31343;47.520;19.144;2023-12-07T09:20:10;2.10;99.90
45619;DHT22;31343;47.520;19.144;2023-12-07T09:22:43;2.20;99.90
45619;DHT22;31343;47.520;19.144;2023-12-07T09:25:10;2.30;99.90
45619;DHT22;31343;47.520;19.144;2023-12-07T09:27:37;2.40;99.90
45619;DHT22;31343;47.520;19.144;2023-12-07T09:30:06;2.20;99.90
45619;DHT22;31343;47.520;19.144;2023-12-07T09:32:32;2.30;99.90
45619;DHT22;31343;47.520;19.144;2023-12-07T09:34:57;2.40;99.90
45619;DHT22;31343;47.520;19.144;2023-12-07T09:37:23;2.40;99.90
45619;DHT22;31343;47.520;19.144;2023-12-07T09:39:49;2.40;99.90
45619;DHT22;31343;47.520;19.144;2023-12-07T09:42:15;2.40;99.90
45619;DHT22;31343;47.520;19.144;2023-12-07T09:44:40;2.40;99.90
45619;DHT22;31343;47.520;19.144;2023-12-07T09:47:07;2.40;99.90
45619;DHT22;31343;47.520;19.144;2023-12-07T09:49:32;2.40;99.90
45619;DHT22;31343;47.520;19.144;2023-12-07T09:51:59;2.40;99.90
45619;DHT22;31343;47.520;19.144;2023-12-07T09:54:26;2.40;99.90
45619;DHT22;31343;47.520;19.144;2023-12-07T09:56:54;2.40;99.90
45619;DHT22;31343;47.520;19.144;2023-12-07T09:59:20;2.50;99.90
45619;DHT22;31343;47.520;19.144;2023-12-07T10:01:46;2.40;99.90
45619;DHT22;31343;47.520;19.144;2023-12-07T10:04:20;2.30;99.90
45619;DHT22;31343;47.520;19.144;2023-12-07T10:06:47;2.30;99.90
45619;DHT22;31343;47.520;19.144;2023-12-07T10:09:13;2.40;99.90
45619;DHT22;31343;47.520;19.144;2023-12-07T10:11:40;2.50;99.90
45619;DHT22;31343;47.520;19.144;2023-12-07T10:14:07;2.50;99.90
45619;DHT22;31343;47.520;19.144;2023-12-07T10:16:36;2.50;99.90
45619;DHT22;31343;47.520;19.144;2023-12-07T10:19:15;2.50;99.90
45619;DHT22;31343;47.520;19.144;2023-12-07T10:21:43;2.30;99.90
45619;DHT22;31343;47.520;19.144;2023-12-07T10:24:12;2.30;99.90
45619;DHT22;31343;47.520;19.144;2023-12-07T10:26:39;2.20;99.90
45619;DHT22;31343;47.520;19.144;2023-12-07T10:29:06;2.30;99.90
45619;DHT22;31343;47.520;19.144;2023-12-07T10:31:33;2.30;99.90
45619;DHT22;31343;47.520;19.144;2023-12-07T10:33:59;2.30;99.90
45619;DHT22;31343;47.520;19.144;2023-12-07T10:36:26;2.30;99.90
45619;DHT22;31343;47.520;19.144;2023-12-07T10:38:52;2.20;99.90
45619;DHT22;31343;47.520;19.144;2023-12-07T10:41:22;2.30;99.90
45619;DHT22;31343;47.520;19.144;2023-12-07T10:43:57;2.20;99.90
45619;DHT22;31343;47.520;19.144;2023-12-07T10:46:25;2.30;99.90
45619;DHT22;31343;47.520;19.144;2023-12-07T10:49:13;2.30;99.90
45619;DHT22;31343;47.520;19.144;2023-12-07T10:51:45;2.40;99.90
45619;DHT22;31343;47.520;19.144;2023-12-07T10:54:16;2.40;99.90
45619;DHT22;31343;47.520;19.144;2023-12-07T10:56:46;2.50;99.90
45619;DHT22;31343;47.520;19.144;2023-12-07T10:59:12;2.50;99.90
45619;DHT22;31343;47.520;19.144;2023-12-07T11:01:42;2.60;99.90
45619;DHT22;31343;47.520;19.144;2023-12-07T11:04:12;2.50;99.90
45619;DHT22;31343;47.520;19.144;2023-12-07T11:06:44;2.60;99.90
45619;DHT22;31343;47.520;19.144;2023-12-07T11:09:22;2.60;99.90
45619;DHT22;31343;47.520;19.144;2023-12-07T11:11:58;2.50;99.90
45619;DHT22;31343;47.520;19.144;2023-12-07T11:14:26;2.50;99.90
45619;DHT22;31343;47.520;19.144;2023-12-07T11:16:53;2.60;99.90
45619;DHT22;31343;47.520;19.144;2023-12-07T11:22:10;2.60;99.90
45619;DHT22;31343;47.520;19.144;2023-12-07T11:24:37;2.50;99.90
45619;DHT22;31343;47.520;19.144;2023-12-07T11:27:03;2.50;99.90
45619;DHT22;31343;47.520;19.144;2023-12-07T11:29:29;2.50;99.90
45619;DHT22;31343;47.520;19.144;2023-12-07T11:31:56;2.50;99.90
45619;DHT22;31343;47.520;19.144;2023-12-07T11:34:42;2.40;99.90
45619;DHT22;31343;47.520;19.144;2023-12-07T11:37:10;2.60;99.90
45619;DHT22;31343;47.520;19.144;2023-12-07T11:39:39;2.60;99.90
45619;DHT22;31343;47.520;19.144;2023-12-07T11:42:17;2.50;99.90
45619;DHT22;31343;47.520;19.144;2023-12-07T11:44:44;2.40;99.90
45619;DHT22;31343;47.520;19.144;2023-12-07T11:47:16;2.40;99.90
45619;DHT22;31343;47.520;19.144;2023-12-07T11:49:43;2.40;99.90
45619;DHT22;31343;47.520;19.144;2023-12-07T11:52:16;2.40;99.90
45619;DHT22;31343;47.520;19.144;2023-12-07T11:54:48;2.50;99.90
45619;DHT22;31343;47.520;19.144;2023-12-07T11:57:15;2.60;99.90
45619;DHT22;31343;47.520;19.144;2023-12-07T11:59:44;2.80;99.90
45619;DHT22;31343;47.520;19.144;2023-12-07T12:02:11;2.70;99.90
45619;DHT22;31343;47.520;19.144;2023-12-07T12:04:37;2.80;99.90
45619;DHT22;31343;47.520;19.144;2023-12-07T12:07:04;2.80;99.90
45619;DHT22;31343;47.520;19.144;2023-12-07T12:09:30;2.70;99.90
45619;DHT22;31343;47.520;19.144;2023-12-07T12:11:57;2.70;99.90
45619;DHT22;31343;47.520;19.144;2023-12-07T12:14:26;2.60;99.90
45619;DHT22;31343;47.520;19.144;2023-12-07T12:16:52;2.80;99.90
45619;DHT22;31343;47.520;19.144;2023-12-07T12:19:18;2.80;99.90
45619;DHT22;31343;47.520;19.144;2023-12-07T12:21:45;2.80;99.90
45619;DHT22;31343;47.520;19.144;2023-12-07T12:24:12;2.90;99.90
45619;DHT22;31343;47.520;19.144;2023-12-07T12:26:41;2.90;99.90
45619;DHT22;31343;47.520;19.144;2023-12-07T12:29:07;2.80;99.90
45619;DHT22;31343;47.520;19.144;2023-12-07T12:31:35;2.70;99.90
45619;DHT22;31343;47.520;19.144;2023-12-07T12:34:01;2.80;99.90
45619;DHT22;31343;47.520;19.144;2023-12-07T12:36:27;2.80;99.90
45619;DHT22;31343;47.520;19.144;2023-12-07T12:38:54;2.90;99.90
45619;DHT22;31343;47.520;19.144;2023-12-07T12:41:22;2.80;99.90
45619;DHT22;31343;47.520;19.144;2023-12-07T12:43:48;2.70;99.90
45619;DHT22;31343;47.520;19.144;2023-12-07T12:46:15;2.60;99.90
45619;DHT22;31343;47.520;19.144;2023-12-07T12:48:58;2.70;99.90
45619;DHT22;31343;47.520;19.144;2023-12-07T12:51:25;2.70;99.90
45619;DHT22;31343;47.520;19.144;2023-12-07T12:53:54;2.60;99.90
45619;DHT22;31343;47.520;19.144;2023-12-07T12:56:21;2.50;99.90
45619;DHT22;31343;47.520;19.144;2023-12-07T12:58:54;2.60;99.90
45619;DHT22;31343;47.520;19.144;2023-12-07T13:01:23;2.50;99.90
45619;DHT22;31343;47.520;19.144;2023-12-07T13:03:49;2.50;99.90
45619;DHT22;31343;47.520;19.144;2023-12-07T13:06:15;2.60;99.90
45619;DHT22;31343;47.520;19.144;2023-12-07T13:08:47;2.60;99.90
45619;DHT22;31343;47.520;19.144;2023-12-07T13:11:19;2.50;99.90
45619;DHT22;31343;47.520;19.144;2023-12-07T13:13:45;2.40;99.90
45619;DHT22;31343;47.520;19.144;2023-12-07T13:16:13;2.50;99.90
45619;DHT22;31343;47.520;19.144;2023-12-07T13:18:40;2.60;99.90
45619;DHT22;31343;47.520;19.144;2023-12-07T13:21:06;2.60;99.90
45619;DHT22;31343;47.520;19.144;2023-12-07T13:23:32;2.50;99.90
45619;DHT22;31343;47.520;19.144;2023-12-07T13:25:57;2.40;99.90
45619;DHT22;31343;47.520;19.144;2023-12-07T13:28:23;2.30;99.90
45619;DHT22;31343;47.520;19.144;2023-12-07T13:30:49;2.30;99.90
45619;DHT22;31343;47.520;19.144;2023-12-07T13:33:14;2.30;99.90
45619;DHT22;31343;47.520;19.144;2023-12-07T13:35:40;2.20;99.90
45619;DHT22;31343;47.520;19.144;2023-12-07T13:38:06;2.20;99.90
45619;DHT22;31343;47.520;19.144;2023-12-07T13:40:32;2.20;99.90
45619;DHT22;31343;47.520;19.144;2023-12-07T13:42:57;2.20;99.90
45619;DHT22;31343;47.520;19.144;2023-12-07T13:45:23;2.20;99.90
45619;DHT22;31343;47.520;19.144;2023-12-07T13:47:49;2.20;99.90
45619;DHT22;31343;47.520;19.144;2023-12-07T13:50:15;2.20;99.90
45619;DHT22;31343;47.520;19.144;2023-12-07T13:52:40;2.10;99.90
45619;DHT22;31343;47.520;19.144;2023-12-07T13:55:07;2.10;99.90
45619;DHT22;31343;47.520;19.144;2023-12-07T13:57:33;2.10;99.90
45619;DHT22;31343;47.520;19.144;2023-12-07T13:59:59;2.20;99.90
45619;DHT22;31343;47.520;19.144;2023-12-07T14:02:25;2.10;99.90
45619;DHT22;31343;47.520;19.144;2023-12-07T14:04:51;2.20;99.90
45619;DHT22;31343;47.520;19.144;2023-12-07T14:07:21;2.30;99.90
45619;DHT22;31343;47.520;19.144;2023-12-07T14:09:50;2.30;99.90
45619;DHT22;31343;47.520;19.144;2023-12-07T14:12:16;2.30;99.90
45619;DHT22;31343;47.520;19.144;2023-12-07T14:14:45;2.20;99.90
45619;DHT22;31343;47.520;19.144;2023-12-07T14:17:12;2.20;99.90
45619;DHT22;31343;47.520;19.144;2023-12-07T14:19:38;2.20;99.90
45619;DHT22;31343;47.520;19.144;2023-12-07T14:22:04;2.30;99.90
45619;DHT22;31343;47.520;19.144;2023-12-07T14:24:31;2.20;99.90
45619;DHT22;31343;47.520;19.144;2023-12-07T14:26:58;2.20;99.90
45619;DHT22;31343;47.520;19.144;2023-12-07T14:29:24;2.30;99.90
45619;DHT22;31343;47.520;19.144;2023-12-07T14:31:51;2.30;99.90
45619;DHT22;31343;47.520;19.144;2023-12-07T14:34:17;2.20;99.90
45619;DHT22;31343;47.520;19.144;2023-12-07T14:36:44;2.10;99.90
45619;DHT22;31343;47.520;19.144;2023-12-07T14:39:11;2.20;99.90
45619;DHT22;31343;47.520;19.144;2023-12-07T14:41:48;2.20;99.90
45619;DHT22;31343;47.520;19.144;2023-12-07T14:44:15;2.20;99.90
45619;DHT22;31343;47.520;19.144;2023-12-07T14:46:45;1.90;99.90
45619;DHT22;31343;47.520;19.144;2023-12-07T14:49:16;1.90;99.90
45619;DHT22;31343;47.520;19.144;2023-12-07T14:51:43;2.00;99.90
45619;DHT22;31343;47.520;19.144;2023-12-07T14:54:09;1.90;99.90
45619;DHT22;31343;47.520;19.144;2023-12-07T14:56:38;2.00;99.90
45619;DHT22;31343;47.520;19.144;2023-12-07T14:59:05;2.00;99.90
45619;DHT22;31343;47.520;19.144;2023-12-07T15:01:31;2.00;99.90
45619;DHT22;31343;47.520;19.144;2023-12-07T15:03:57;2.00;99.90
45619;DHT22;31343;47.520;19.144;2023-12-07T15:06:25;2.10;99.90
45619;DHT22;31343;47.520;19.144;2023-12-07T15:08:52;2.00;99.90
45619;DHT22;31343;47.520;19.144;2023-12-07T15:11:18;2.00;99.90
45619;DHT22;31343;47.520;19.144;2023-12-07T15:13:44;1.90;99.90
45619;DHT22;31343;47.520;19.144;2023-12-07T15:16:10;1.90;99.90
45619;DHT22;31343;47.520;19.144;2023-12-07T15:18:36;1.90;99.90
45619;DHT22;31343;47.520;19.144;2023-12-07T15:21:02;1.80;99.90
45619;DHT22;31343;47.520;19.144;2023-12-07T15:23:29;1.80;99.90
45619;DHT22;31343;47.520;19.144;2023-12-07T15:25:55;1.70;99.90
45619;DHT22;31343;47.520;19.144;2023-12-07T15:28:21;1.80;99.90
45619;DHT22;31343;47.520;19.144;2023-12-07T15:30:48;1.80;99.90